Time;durP1;ratioP1;P1;durP2;ratioP2;P2;SDS_P1;SDS_P2;PMS_P1;PMS_P2;Temp;Humidity;BMP_temperature;BMP_pressure;BME280_temperature;BME280_humidity;BME280_pressure;Samples;Min_cycle;Max_cycle;Signal;HPM_P1;HPM_P2
2022/02/01 00:00:24;;;;;;;0.87;0.40;;;2.90;99.90;;;;;;5051083;28;20103;-66
2022/02/01 00:02:55;;;;;;;1.07;0.60;;;2.90;99.90;;;;;;5051301;28;20053;-65
2022/02/01 00:05:27;;;;;;;2.60;0.80;;;2.90;99.90;;;;;;5050465;28;20456;-66
2022/02/01 00:08:04;;;;;;;1.20;0.77;;;3.00;99.90;;;;;;5051379;28;20441;-66
2022/02/01 00:10:48;;;;;;;1.80;0.93;;;2.90;99.90;;;;;;5051241;28;20049;-66
2022/02/01 00:13:25;;;;;;;1.73;0.93;;;3.00;99.90;;;;;;5051155;28;20115;-66
2022/02/01 00:16:16;;;;;;;4.43;1.90;;;3.00;99.90;;;;;;5050858;28;20053;-66
2022/02/01 00:19:05;;;;;;;4.53;2.20;;;3.00;99.90;;;;;;5054844;28;20057;-66
2022/02/01 00:35:31;;;;;;;4.90;2.33;;;2.80;99.90;;;;;;5053952;28;20118;-68
2022/02/01 00:38:01;;;;;;;6.03;2.73;;;2.70;99.90;;;;;;5054421;28;20063;-68
2022/02/01 00:40:28;;;;;;;5.80;2.60;;;2.60;99.90;;;;;;5054260;28;20151;-67
2022/02/01 00:42:57;;;;;;;6.53;2.60;;;2.50;99.90;;;;;;5054304;28;20140;-66
2022/02/01 00:45:23;;;;;;;6.77;2.33;;;2.50;99.90;;;;;;5053699;28;20132;-67
2022/02/01 00:47:50;;;;;;;4.87;2.33;;;2.60;99.90;;;;;;5054164;28;20095;-68
2022/02/01 00:50:17;;;;;;;5.83;2.60;;;2.50;99.90;;;;;;5054116;28;20049;-67
2022/02/01 00:52:44;;;;;;;5.70;2.23;;;2.50;99.90;;;;;;5054012;28;20081;-67
2022/02/01 00:55:12;;;;;;;8.80;2.70;;;2.50;99.90;;;;;;5053658;28;20095;-67
2022/02/01 00:57:39;;;;;;;7.47;3.40;;;2.40;99.90;;;;;;5054161;28;20053;-68
2022/02/01 01:00:11;;;;;;;5.90;3.00;;;2.40;99.90;;;;;;5053800;28;20559;-67
2022/02/01 01:02:38;;;;;;;6.90;2.80;;;2.30;99.90;;;;;;5053819;28;20112;-67
2022/02/01 01:05:06;;;;;;;6.57;2.90;;;2.20;99.90;;;;;;5053445;28;20135;-67
2022/02/01 01:07:33;;;;;;;7.27;3.27;;;2.20;99.90;;;;;;5053791;28;20489;-67
2022/02/01 01:10:01;;;;;;;6.73;3.10;;;2.10;99.90;;;;;;5053831;28;20135;-67
2022/02/01 01:12:35;;;;;;;8.37;3.27;;;2.10;99.90;;;;;;5053638;28;20053;-68
2022/02/01 01:15:15;;;;;;;5.93;2.73;;;2.10;99.90;;;;;;5054071;28;20084;-67
2022/02/01 01:18:25;;;;;;;7.00;3.07;;;2.00;99.90;;;;;;5053893;28;20056;-67
2022/02/01 01:45:47;;;;;;;9.43;4.43;;;2.10;99.90;;;;;;5052805;28;20091;-67
2022/02/01 01:53:44;;;;;;;9.13;4.40;;;2.20;99.90;;;;;;5052906;28;20519;-68
2022/02/01 01:56:11;;;;;;;12.33;5.37;;;2.10;99.90;;;;;;5052481;28;20141;-67
2022/02/01 01:58:37;;;;;;;10.57;5.10;;;2.10;99.90;;;;;;5053144;28;20160;-67
2022/02/01 02:01:12;;;;;;;12.17;4.60;;;2.10;99.90;;;;;;5052431;28;20132;-67
2022/02/01 02:03:40;;;;;;;10.13;5.40;;;2.10;99.90;;;;;;5052524;28;20049;-67
2022/02/01 02:06:09;;;;;;;11.90;5.13;;;2.10;99.90;;;;;;5052129;28;20053;-68
2022/02/01 02:08:36;;;;;;;10.20;4.90;;;2.10;99.90;;;;;;5052620;28;20091;-67
2022/02/01 02:11:06;;;;;;;9.27;4.50;;;2.00;99.90;;;;;;5052347;28;20501;-67
2022/02/01 02:16:20;;;;;;;11.23;5.45;;;2.00;99.90;;;;;;5052353;28;20059;-67
2022/02/01 02:18:47;;;;;;;10.67;5.07;;;2.00;99.90;;;;;;5052373;28;20049;-67
2022/02/01 02:21:18;;;;;;;10.93;5.20;;;2.00;99.90;;;;;;5052284;28;20474;-67
2022/02/01 02:23:46;;;;;;;9.57;4.77;;;2.00;99.90;;;;;;5052277;28;20060;-67
2022/02/01 02:26:14;;;;;;;11.67;5.50;;;2.00;99.90;;;;;;5051761;28;20128;-67
2022/02/01 02:28:41;;;;;;;10.10;4.57;;;2.00;99.90;;;;;;5052512;28;20132;-67
2022/02/01 02:31:08;;;;;;;12.13;4.87;;;2.00;99.90;;;;;;5052101;28;20099;-66
2022/02/01 02:33:35;;;;;;;11.20;5.33;;;2.00;99.90;;;;;;5051761;28;20485;-68
2022/02/01 02:36:07;;;;;;;12.20;5.13;;;2.00;99.90;;;;;;5051806;28;20049;-67
2022/02/01 02:38:42;;;;;;;13.83;5.47;;;2.10;99.90;;;;;;5052068;28;20049;-67
2022/02/01 02:41:29;;;;;;;12.93;5.43;;;2.10;99.90;;;;;;5051807;28;20509;-67
2022/02/01 02:46:44;;;;;;;13.52;6.68;;;2.10;99.90;;;;;;5051624;28;20060;-67
2022/02/01 02:49:14;;;;;;;11.87;5.90;;;2.20;99.90;;;;;;5051812;28;20507;-67
2022/02/01 02:51:41;;;;;;;13.20;6.23;;;2.20;99.90;;;;;;5052196;28;20083;-67
2022/02/01 02:54:12;;;;;;;12.53;5.87;;;2.20;99.90;;;;;;5051760;28;20132;-69
2022/02/01 02:56:39;;;;;;;12.93;6.17;;;2.10;99.90;;;;;;5050990;28;20044;-67
2022/02/01 02:59:06;;;;;;;16.37;7.37;;;2.10;99.90;;;;;;5051739;28;20049;-67
2022/02/01 03:01:33;;;;;;;13.80;6.60;;;2.20;99.90;;;;;;5051761;28;20140;-68
2022/02/01 03:04:00;;;;;;;17.50;6.87;;;2.20;99.90;;;;;;5051356;28;20052;-68
2022/02/01 03:06:26;;;;;;;18.13;6.40;;;2.20;99.90;;;;;;5051277;28;20048;-67
2022/02/01 03:08:53;;;;;;;12.37;5.50;;;2.20;99.90;;;;;;5051601;28;20472;-67
2022/02/01 03:11:22;;;;;;;13.50;5.93;;;2.30;99.90;;;;;;5051769;28;20132;-67
2022/02/01 03:13:53;;;;;;;13.53;6.77;;;2.20;99.90;;;;;;5051682;28;20131;-67
2022/02/01 03:16:47;;;;;;;13.30;6.40;;;2.30;99.90;;;;;;5051635;28;20076;-67
2022/02/01 03:21:59;;;;;;;11.93;5.87;;;2.20;99.90;;;;;;5051612;28;20052;-68
2022/02/01 03:24:26;;;;;;;11.47;5.60;;;2.20;99.90;;;;;;5051391;28;20131;-67
2022/02/01 03:26:54;;;;;;;11.00;5.37;;;2.20;99.90;;;;;;5051332;28;20080;-68
2022/02/01 03:29:21;;;;;;;13.27;5.07;;;2.20;99.90;;;;;;5051443;28;20560;-68
2022/02/01 03:31:48;;;;;;;13.97;5.30;;;2.20;99.90;;;;;;5051512;28;20568;-67
2022/02/01 03:34:15;;;;;;;12.27;5.00;;;2.20;99.90;;;;;;5059409;28;20143;-68
2022/02/01 03:36:42;;;;;;;13.07;5.40;;;2.20;99.90;;;;;;5071061;28;20131;-68
2022/02/01 03:39:09;;;;;;;12.33;5.07;;;2.20;99.90;;;;;;5071433;28;20044;-67
2022/02/01 03:41:36;;;;;;;13.30;4.80;;;2.20;99.90;;;;;;5071383;28;20058;-68
2022/02/01 03:44:05;;;;;;;11.80;4.90;;;2.20;99.90;;;;;;5071028;28;20484;-67
2022/02/01 03:46:32;;;;;;;12.37;5.00;;;2.20;99.90;;;;;;5071298;28;20067;-68
2022/02/01 03:48:59;;;;;;;12.63;4.93;;;2.20;99.90;;;;;;5071502;28;20131;-67
2022/02/01 03:51:26;;;;;;;15.47;5.83;;;2.20;99.90;;;;;;5072057;28;20051;-67
2022/02/01 03:53:53;;;;;;;15.00;5.43;;;2.20;99.90;;;;;;5075041;28;20080;-67
2022/02/01 03:56:20;;;;;;;12.33;5.40;;;2.20;99.90;;;;;;5074819;28;20135;-68
2022/02/01 03:58:47;;;;;;;15.97;7.03;;;2.20;99.90;;;;;;5074935;28;20091;-68
2022/02/01 04:01:15;;;;;;;13.03;5.97;;;2.20;99.90;;;;;;5074871;28;20051;-68
2022/02/01 04:03:42;;;;;;;11.73;5.77;;;2.20;99.90;;;;;;5074850;28;20139;-67
2022/02/01 04:06:09;;;;;;;13.57;5.90;;;2.10;99.90;;;;;;5074495;28;20135;-68
2022/02/01 04:08:38;;;;;;;14.17;5.83;;;2.00;99.90;;;;;;5167206;22;20136;-70
2022/02/01 04:11:05;;;;;;;15.00;6.83;;;2.00;99.90;;;;;;5074988;28;20060;-69
2022/02/01 04:13:31;;;;;;;16.17;7.00;;;2.00;99.90;;;;;;5071961;28;20131;-70
2022/02/01 04:15:58;;;;;;;12.90;5.90;;;2.00;99.90;;;;;;5074302;28;20115;-70
2022/02/01 04:18:27;;;;;;;14.53;6.00;;;1.90;99.90;;;;;;5074545;28;20135;-70
2022/02/01 04:20:54;;;;;;;14.80;6.97;;;1.80;99.90;;;;;;5074415;28;20084;-69
2022/02/01 04:23:21;;;;;;;15.27;7.07;;;1.80;99.90;;;;;;5074550;28;20056;-70
2022/02/01 04:25:50;;;;;;;16.20;6.13;;;1.80;99.90;;;;;;5074258;28;20084;-69
2022/02/01 04:28:17;;;;;;;12.07;5.63;;;1.80;99.90;;;;;;5074610;28;20052;-70
2022/02/01 04:30:44;;;;;;;17.77;7.50;;;1.80;99.90;;;;;;5074663;28;20131;-69
2022/02/01 04:33:12;;;;;;;13.20;5.97;;;1.80;99.90;;;;;;5074179;28;20397;-70
2022/02/01 04:35:40;;;;;;;18.03;6.60;;;1.80;99.90;;;;;;5074158;28;20515;-70
2022/02/01 04:38:08;;;;;;;16.43;6.17;;;1.80;99.90;;;;;;5074095;28;20051;-70
2022/02/01 04:40:35;;;;;;;15.47;6.87;;;1.70;99.90;;;;;;5074227;28;20468;-70
2022/02/01 04:43:04;;;;;;;19.73;7.17;;;1.70;99.90;;;;;;5074122;28;20075;-70
2022/02/01 04:45:31;;;;;;;16.33;7.27;;;1.80;99.90;;;;;;5073892;28;20075;-70
2022/02/01 04:47:58;;;;;;;22.10;8.87;;;1.80;99.90;;;;;;5073959;28;20053;-70
2022/02/01 04:50:27;;;;;;;17.73;7.07;;;1.70;99.90;;;;;;5074074;28;20088;-70
2022/02/01 04:52:56;;;;;;;20.30;8.27;;;1.70;99.90;;;;;;5073997;28;20132;-70
2022/02/01 04:55:25;;;;;;;21.97;9.23;;;1.70;99.90;;;;;;5073578;28;20132;-70
2022/02/01 04:57:55;;;;;;;20.73;8.77;;;1.70;99.90;;;;;;5074050;28;20056;-70
2022/02/01 05:00:25;;;;;;;20.60;7.57;;;1.80;99.90;;;;;;5073730;28;20135;-70
2022/02/01 05:02:52;;;;;;;18.50;8.00;;;1.80;99.90;;;;;;5072815;28;20048;-70
2022/02/01 05:05:26;;;;;;;20.00;8.67;;;1.80;99.90;;;;;;5073170;28;20139;-70
2022/02/01 05:07:56;;;;;;;19.10;8.20;;;1.80;99.90;;;;;;5074035;28;20056;-70
2022/02/01 05:10:23;;;;;;;24.57;8.63;;;1.90;99.90;;;;;;5073418;28;20102;-70
2022/02/01 05:12:50;;;;;;;21.03;8.73;;;1.90;99.90;;;;;;5073611;28;20136;-70
2022/02/01 05:15:17;;;;;;;21.47;8.83;;;1.90;99.90;;;;;;5073140;28;20516;-70
2022/02/01 05:17:53;;;;;;;24.37;8.27;;;1.90;99.90;;;;;;5073832;28;20058;-70
2022/02/01 05:20:26;;;;;;;19.63;8.53;;;1.90;99.90;;;;;;5073397;28;20510;-70
2022/02/01 05:22:55;;;;;;;20.10;8.70;;;1.90;99.90;;;;;;5073613;28;20139;-70
2022/02/01 05:25:27;;;;;;;22.07;8.63;;;2.00;99.90;;;;;;5072875;28;20088;-69
2022/02/01 05:27:57;;;;;;;22.53;9.17;;;1.90;99.90;;;;;;5073357;28;20055;-69
2022/02/01 05:30:25;;;;;;;24.47;8.93;;;2.00;99.90;;;;;;5073516;28;20117;-69
2022/02/01 05:32:52;;;;;;;20.63;9.53;;;2.00;99.90;;;;;;5073251;28;20055;-70
2022/02/01 05:35:19;;;;;;;19.03;8.93;;;2.00;99.90;;;;;;5072873;28;20563;-69
2022/02/01 05:37:46;;;;;;;18.77;7.47;;;2.00;99.90;;;;;;5073024;28;20393;-69
2022/02/01 05:40:15;;;;;;;15.23;7.07;;;2.10;99.90;;;;;;5073147;28;20139;-69
2022/02/01 05:42:46;;;;;;;14.13;6.00;;;2.10;99.90;;;;;;5073485;28;20060;-69
2022/02/01 05:45:13;;;;;;;13.17;6.07;;;2.30;99.90;;;;;;5072805;28;20056;-68
2022/02/01 05:47:41;;;;;;;13.73;5.37;;;2.30;99.90;;;;;;5076674;28;20131;-69
2022/02/01 05:50:08;;;;;;;13.33;5.37;;;2.30;99.90;;;;;;5074629;28;20131;-69
2022/02/01 05:52:35;;;;;;;12.70;4.77;;;2.40;99.90;;;;;;5078716;28;20131;-69
2022/02/01 05:55:02;;;;;;;9.80;4.20;;;2.30;99.90;;;;;;5074707;28;20095;-67
2022/02/01 05:57:31;;;;;;;10.50;4.40;;;2.30;99.90;;;;;;5082312;28;20070;-69
2022/02/01 05:59:58;;;;;;;12.33;3.40;;;2.30;99.90;;;;;;5073977;28;20131;-69
2022/02/01 06:02:25;;;;;;;9.10;4.10;;;2.40;99.90;;;;;;5086932;28;20040;-70
2022/02/01 06:04:52;;;;;;;12.60;3.57;;;2.30;99.90;;;;;;5081610;28;20104;-70
2022/02/01 06:07:19;;;;;;;15.33;4.20;;;2.30;99.90;;;;;;5074408;28;20147;-70
2022/02/01 06:09:45;;;;;;;16.50;3.77;;;2.30;99.90;;;;;;5074541;28;20088;-69
2022/02/01 06:12:12;;;;;;;17.67;4.57;;;2.30;99.90;;;;;;5075231;28;20084;-69
2022/02/01 06:14:41;;;;;;;14.40;3.40;;;2.30;99.90;;;;;;5074159;28;20128;-70
2022/02/01 06:17:08;;;;;;;11.33;2.70;;;2.30;99.90;;;;;;5072720;28;20135;-70
2022/02/01 06:19:35;;;;;;;18.97;3.67;;;2.30;99.90;;;;;;5072347;28;20488;-70
2022/02/01 06:22:02;;;;;;;14.10;3.43;;;2.40;99.90;;;;;;5072960;28;20114;-70
2022/02/01 06:24:30;;;;;;;12.23;3.40;;;2.40;99.90;;;;;;5072273;28;20131;-70
2022/02/01 06:26:57;;;;;;;13.80;3.43;;;2.40;99.90;;;;;;5071890;28;20052;-70
2022/02/01 06:29:24;;;;;;;18.73;3.90;;;2.50;99.90;;;;;;5072351;28;20447;-70
2022/02/01 06:31:53;;;;;;;10.37;3.30;;;2.40;99.90;;;;;;5072079;28;20084;-70
2022/02/01 06:34:20;;;;;;;17.43;4.33;;;2.60;99.90;;;;;;5071897;28;20070;-70
2022/02/01 06:36:46;;;;;;;14.63;4.63;;;2.60;99.90;;;;;;5072034;28;20051;-70
2022/02/01 06:39:13;;;;;;;13.00;3.70;;;2.60;99.90;;;;;;5072084;28;20139;-70
2022/02/01 06:41:40;;;;;;;15.93;3.57;;;2.60;99.90;;;;;;5072088;28;20056;-70
2022/02/01 06:44:08;;;;;;;15.87;3.03;;;2.60;99.90;;;;;;5071984;28;20140;-70
2022/02/01 06:46:36;;;;;;;16.13;3.13;;;2.60;99.90;;;;;;5072608;28;20055;-70
2022/02/01 06:49:05;;;;;;;16.47;3.20;;;2.60;99.90;;;;;;5072602;28;20052;-70
2022/02/01 06:51:32;;;;;;;16.20;3.10;;;2.70;99.90;;;;;;5073146;28;20394;-70
2022/02/01 06:54:01;;;;;;;23.07;4.47;;;2.60;99.90;;;;;;5072855;28;20121;-70
2022/02/01 06:56:32;;;;;;;16.63;3.33;;;2.70;99.90;;;;;;5071934;28;20110;-70
2022/02/01 06:59:00;;;;;;;17.20;3.27;;;2.70;99.90;;;;;;5071944;28;20051;-70
2022/02/01 07:01:28;;;;;;;22.17;3.47;;;2.70;99.90;;;;;;5072147;28;20144;-70
2022/02/01 07:03:55;;;;;;;18.93;3.17;;;2.70;99.90;;;;;;5071541;28;20058;-70
2022/02/01 07:06:24;;;;;;;15.80;4.27;;;2.70;99.90;;;;;;5071566;28;20143;-70
2022/02/01 07:08:52;;;;;;;21.33;2.97;;;2.70;99.90;;;;;;5071720;28;20060;-70
2022/02/01 07:11:20;;;;;;;23.07;3.97;;;2.60;99.90;;;;;;5071758;28;20087;-70
2022/02/01 07:13:47;;;;;;;13.37;3.47;;;2.60;99.90;;;;;;5071351;28;20135;-70
2022/02/01 07:16:15;;;;;;;20.87;4.40;;;2.50;99.90;;;;;;5071567;28;20053;-70
2022/02/01 07:18:42;;;;;;;18.80;3.83;;;2.50;99.90;;;;;;5071648;28;20087;-70
2022/02/01 07:21:09;;;;;;;17.33;3.30;;;2.50;99.90;;;;;;5071570;28;20135;-70
2022/02/01 07:23:39;;;;;;;12.60;3.77;;;2.50;99.90;;;;;;5071947;28;20139;-70
2022/02/01 07:26:07;;;;;;;24.30;4.37;;;2.50;99.90;;;;;;5071315;28;20110;-69
2022/02/01 07:28:34;;;;;;;16.70;3.53;;;2.50;99.90;;;;;;5075878;28;20159;-70
2022/02/01 07:31:01;;;;;;;18.77;2.70;;;2.50;99.90;;;;;;5075707;28;20199;-70
2022/02/01 07:33:29;;;;;;;17.57;2.83;;;2.50;99.90;;;;;;5075337;28;20075;-69
2022/02/01 07:35:57;;;;;;;19.87;4.10;;;2.50;99.90;;;;;;5075150;28;20508;-69
2022/02/01 07:38:25;;;;;;;24.13;4.00;;;2.60;99.90;;;;;;5075481;28;20135;-70
2022/02/01 07:40:55;;;;;;;16.27;2.70;;;2.50;99.90;;;;;;5075266;28;20057;-70
2022/02/01 07:43:24;;;;;;;17.40;3.40;;;2.60;99.90;;;;;;5075261;28;20575;-70
2022/02/01 07:45:52;;;;;;;18.27;3.47;;;2.50;99.90;;;;;;5075097;28;20135;-70
2022/02/01 07:48:19;;;;;;;13.77;2.83;;;2.70;99.90;;;;;;5075211;28;20127;-70
2022/02/01 07:50:46;;;;;;;21.03;3.47;;;2.70;99.90;;;;;;5075190;28;20135;-69
2022/02/01 07:53:13;;;;;;;18.30;3.50;;;2.70;99.90;;;;;;5074845;28;20131;-69
2022/02/01 07:55:41;;;;;;;18.20;3.00;;;2.70;99.90;;;;;;5074860;28;20136;-70
2022/02/01 07:58:09;;;;;;;22.90;3.37;;;2.70;99.90;;;;;;5074959;28;20084;-69
2022/02/01 08:00:37;;;;;;;27.30;5.47;;;2.70;99.90;;;;;;5074992;28;20488;-69
2022/02/01 08:03:05;;;;;;;23.67;3.67;;;2.70;99.90;;;;;;5074927;28;20127;-70
2022/02/01 08:05:33;;;;;;;24.77;4.33;;;2.60;99.90;;;;;;5074788;28;20057;-70
2022/02/01 08:08:02;;;;;;;18.03;3.50;;;2.60;99.90;;;;;;5074657;28;20569;-70
2022/02/01 08:10:36;;;;;;;20.70;3.87;;;2.60;99.90;;;;;;5074925;28;20117;-70
2022/02/01 08:13:48;;;;;;;26.47;4.53;;;2.60;99.90;;;;;;5074734;28;20095;-70
2022/02/01 08:16:33;;;;;;;18.13;2.97;;;2.60;99.90;;;;;;5074089;28;20500;-70
2022/02/01 08:19:13;;;;;;;19.20;3.13;;;2.60;99.90;;;;;;5074525;28;20063;-70
2022/02/01 08:21:45;;;;;;;23.90;3.87;;;2.60;99.90;;;;;;5075153;28;20072;-70
2022/02/01 08:24:12;;;;;;;17.40;3.57;;;2.70;99.90;;;;;;5074694;28;20054;-69
2022/02/01 08:26:39;;;;;;;21.23;3.30;;;2.70;99.90;;;;;;5073915;28;20059;-69
2022/02/01 08:29:06;;;;;;;17.33;3.60;;;2.70;99.90;;;;;;5074309;28;20604;-70
2022/02/01 08:31:35;;;;;;;18.83;4.30;;;2.70;99.90;;;;;;5074324;28;20052;-70
2022/02/01 08:34:02;;;;;;;19.33;3.37;;;2.70;99.90;;;;;;5074315;28;20469;-69
2022/02/01 08:36:29;;;;;;;22.03;5.07;;;2.70;99.90;;;;;;5074082;28;20143;-69
2022/02/01 08:38:56;;;;;;;24.17;3.90;;;2.80;99.90;;;;;;5073867;28;20139;-69
2022/02/01 08:41:23;;;;;;;23.37;4.73;;;2.80;99.90;;;;;;5074056;28;20132;-69
2022/02/01 08:43:53;;;;;;;23.77;4.10;;;2.80;99.90;;;;;;5074137;28;20504;-69
2022/02/01 08:46:22;;;;;;;22.03;3.83;;;2.80;99.90;;;;;;5073630;28;20098;-69
2022/02/01 08:48:50;;;;;;;30.17;4.73;;;2.80;99.90;;;;;;5074085;28;20088;-70
2022/02/01 08:51:19;;;;;;;19.67;4.20;;;2.80;99.90;;;;;;5074083;28;20596;-70
2022/02/01 08:53:55;;;;;;;15.73;3.40;;;2.90;99.90;;;;;;5073964;28;20060;-70
2022/02/01 08:59:07;;;;;;;24.47;3.13;;;3.00;99.90;;;;;;5073608;28;20055;-69
2022/02/01 09:01:34;;;;;;;12.90;3.07;;;3.00;99.90;;;;;;5073824;28;20080;-69
2022/02/01 09:04:02;;;;;;;15.13;3.10;;;3.00;99.90;;;;;;5073564;28;20087;-69
2022/02/01 09:06:29;;;;;;;11.97;3.20;;;3.00;99.90;;;;;;5073575;28;20093;-69
2022/02/01 09:08:56;;;;;;;25.30;3.80;;;3.10;99.90;;;;;;5073631;28;20084;-69
2022/02/01 09:11:23;;;;;;;22.63;4.20;;;3.00;99.90;;;;;;5073889;28;20135;-69
2022/02/01 09:13:50;;;;;;;16.23;4.07;;;3.10;99.90;;;;;;5073653;28;20139;-69
2022/02/01 09:16:20;;;;;;;18.20;3.50;;;3.10;99.90;;;;;;5073526;28;20052;-69
2022/02/01 09:18:47;;;;;;;21.90;4.07;;;3.10;99.90;;;;;;5073569;28;20094;-69
2022/02/01 09:21:16;;;;;;;13.63;3.13;;;3.20;99.90;;;;;;5073421;28;20481;-69
2022/02/01 09:23:43;;;;;;;21.67;4.50;;;3.10;99.90;;;;;;5073415;28;20124;-69
2022/02/01 09:26:10;;;;;;;14.57;3.30;;;3.20;99.90;;;;;;5073142;28;20528;-69
2022/02/01 09:28:37;;;;;;;15.40;3.90;;;3.10;99.90;;;;;;5073348;28;20485;-69
2022/02/01 09:31:05;;;;;;;16.20;3.57;;;3.10;99.90;;;;;;5073128;28;20052;-69
2022/02/01 09:33:32;;;;;;;26.50;4.33;;;3.10;99.90;;;;;;5073230;28;20086;-69
2022/02/01 09:35:59;;;;;;;10.13;3.07;;;3.20;99.90;;;;;;5072959;28;20080;-70
2022/02/01 09:38:31;;;;;;;16.93;4.50;;;3.20;99.90;;;;;;5073012;28;20147;-70
2022/02/01 09:40:58;;;;;;;16.67;3.27;;;3.20;99.90;;;;;;5073112;28;20048;-70
2022/02/01 09:43:25;;;;;;;13.70;3.80;;;3.20;99.90;;;;;;5072964;28;20135;-69
2022/02/01 09:45:54;;;;;;;15.63;3.40;;;3.20;99.90;;;;;;5072503;28;20087;-69
2022/02/01 09:48:21;;;;;;;17.37;3.77;;;3.20;99.90;;;;;;5072886;28;20056;-69
2022/02/01 09:50:48;;;;;;;15.50;3.67;;;3.20;99.90;;;;;;5072123;28;20152;-69
2022/02/01 09:53:15;;;;;;;16.73;4.03;;;3.20;99.90;;;;;;5072841;28;20054;-69
2022/02/01 09:55:43;;;;;;;17.83;3.30;;;3.30;99.90;;;;;;5072514;28;20127;-69
2022/02/01 09:58:12;;;;;;;28.13;5.30;;;3.10;99.90;;;;;;5072603;28;20088;-69
2022/02/01 10:00:44;;;;;;;19.93;5.23;;;3.10;99.90;;;;;;5072797;28;20143;-69
2022/02/01 10:03:16;;;;;;;20.80;4.23;;;3.10;99.90;;;;;;5072770;28;20048;-69
2022/02/01 10:05:44;;;;;;;20.20;3.73;;;3.10;99.90;;;;;;5072382;28;20052;-69
2022/02/01 10:10:57;;;;;;;20.77;4.73;;;3.10;99.90;;;;;;5086691;22;20530;-68
2022/02/01 10:13:24;;;;;;;16.23;4.57;;;3.10;99.90;;;;;;5072626;28;20163;-69
2022/02/01 10:15:55;;;;;;;16.00;3.90;;;3.20;99.90;;;;;;5072601;28;20057;-68
2022/02/01 10:18:27;;;;;;;12.57;3.07;;;3.30;99.90;;;;;;5073108;28;20129;-68
2022/02/01 10:20:54;;;;;;;25.10;5.10;;;3.30;99.90;;;;;;5072503;28;20060;-69
2022/02/01 10:23:25;;;;;;;18.17;3.70;;;3.30;99.90;;;;;;5072178;28;20131;-69
2022/02/01 10:26:03;;;;;;;11.03;2.17;;;3.30;99.90;;;;;;5072404;28;20124;-71
2022/02/01 10:29:04;;;;;;;12.87;2.60;;;3.30;99.90;;;;;;5072452;28;20131;-68
2022/02/01 10:31:37;;;;;;;15.67;2.70;;;3.30;99.90;;;;;;5072074;28;20059;-68
2022/02/01 10:34:38;;;;;;;26.03;2.93;;;3.40;99.90;;;;;;5072193;28;20079;-68
2022/02/01 10:37:17;;;;;;;15.67;2.47;;;3.50;99.90;;;;;;5072079;28;20500;-70
2022/02/01 10:39:44;;;;;;;10.83;2.63;;;3.40;99.90;;;;;;5072132;28;20140;-69
2022/02/01 10:42:14;;;;;;;13.83;2.20;;;3.30;99.90;;;;;;5071953;28;20051;-68
2022/02/01 10:44:43;;;;;;;14.33;2.80;;;3.30;99.90;;;;;;5071760;28;20556;-68
2022/02/01 10:47:12;;;;;;;14.23;3.03;;;3.40;99.90;;;;;;5071937;28;20127;-69
2022/02/01 10:49:39;;;;;;;11.53;3.10;;;3.40;99.90;;;;;;5072025;28;20127;-68
2022/02/01 10:52:08;;;;;;;17.40;2.40;;;3.40;99.90;;;;;;5071871;28;20551;-68
2022/02/01 10:54:37;;;;;;;16.33;2.50;;;3.40;99.90;;;;;;5071531;28;20544;-69
2022/02/01 10:57:06;;;;;;;18.53;2.80;;;3.40;99.90;;;;;;5071585;28;20134;-68
2022/02/01 10:59:35;;;;;;;9.50;2.30;;;3.40;99.90;;;;;;5072030;28;20135;-68
2022/02/01 11:02:04;;;;;;;14.70;2.90;;;3.40;99.90;;;;;;5071634;28;20140;-68
2022/02/01 11:04:32;;;;;;;18.13;2.83;;;3.40;99.90;;;;;;5071589;28;20045;-69
2022/02/01 11:07:00;;;;;;;21.27;3.10;;;3.50;99.90;;;;;;5072084;28;20147;-69
2022/02/01 11:09:32;;;;;;;16.63;1.90;;;3.50;99.90;;;;;;5071936;28;20131;-69
2022/02/01 11:12:05;;;;;;;20.90;2.80;;;3.50;99.90;;;;;;5071602;28;20131;-69
2022/02/01 11:14:40;;;;;;;17.23;2.83;;;3.60;99.90;;;;;;5071603;28;20049;-71
2022/02/01 11:17:09;;;;;;;22.63;3.57;;;3.70;99.90;;;;;;5071412;28;20056;-68
2022/02/01 11:19:46;;;;;;;15.40;4.90;;;3.90;99.90;;;;;;5071486;28;20452;-68
2022/02/01 11:22:20;;;;;;;13.47;2.50;;;3.80;99.90;;;;;;5071670;28;20137;-70
2022/02/01 11:24:56;;;;;;;10.87;2.23;;;3.90;99.90;;;;;;5071235;28;20048;-69
2022/02/01 11:27:43;;;;;;;17.85;2.97;;;3.80;99.90;;;;;;5071800;28;20061;-69
2022/02/01 11:30:13;;;;;;;12.30;1.93;;;3.90;99.90;;;;;;5071393;28;20084;-68
2022/02/01 11:32:51;;;;;;;14.40;2.80;;;3.80;99.90;;;;;;5071717;28;20102;-69
2022/02/01 11:35:24;;;;;;;13.30;2.13;;;4.10;99.90;;;;;;5071498;28;20055;-68
2022/02/01 11:37:52;;;;;;;11.77;2.47;;;3.90;99.90;;;;;;5071707;28;20094;-69
2022/02/01 11:40:22;;;;;;;11.53;2.43;;;4.10;99.90;;;;;;5071539;28;20135;-69
2022/02/01 11:42:55;;;;;;;14.10;2.57;;;4.40;99.90;;;;;;5071432;28;20063;-69
2022/02/01 11:45:31;;;;;;;12.23;2.80;;;4.20;99.90;;;;;;5071089;28;20477;-70
2022/02/01 11:47:58;;;;;;;12.23;2.63;;;4.00;99.90;;;;;;5071207;28;20048;-68
2022/02/01 11:50:26;;;;;;;15.97;2.63;;;4.00;99.90;;;;;;5071419;28;20136;-69
2022/02/01 11:52:55;;;;;;;8.00;1.87;;;4.00;99.90;;;;;;5071438;28;20060;-69
2022/02/01 11:55:25;;;;;;;9.90;2.23;;;4.00;99.90;;;;;;5070970;28;20103;-69
2022/02/01 11:57:54;;;;;;;17.30;3.57;;;4.20;99.90;;;;;;5071530;28;20052;-69
2022/02/01 12:00:25;;;;;;;8.10;1.70;;;4.10;99.90;;;;;;5071358;28;20466;-68
2022/02/01 12:02:56;;;;;;;8.17;1.50;;;3.90;99.90;;;;;;5067580;28;20056;-68
2022/02/01 12:05:30;;;;;;;13.67;3.77;;;3.80;99.90;;;;;;5050858;28;20053;-68
2022/02/01 12:08:05;;;;;;;12.27;2.47;;;3.90;99.90;;;;;;5051764;28;20048;-69
2022/02/01 12:10:33;;;;;;;10.00;2.33;;;3.80;99.90;;;;;;5050941;28;20053;-69
2022/02/01 12:13:01;;;;;;;11.97;2.30;;;3.90;99.90;;;;;;5052623;28;20128;-69
2022/02/01 12:15:30;;;;;;;15.43;2.90;;;3.90;99.90;;;;;;5054570;28;20053;-69
2022/02/01 12:18:17;;;;;;;11.10;1.70;;;3.80;99.90;;;;;;5054797;28;20564;-71
2022/02/01 12:20:45;;;;;;;10.48;1.83;;;3.80;99.90;;;;;;5051658;28;20139;-68
2022/02/01 12:23:23;;;;;;;14.97;2.40;;;3.90;99.90;;;;;;5054456;28;20132;-69
2022/02/01 12:25:50;;;;;;;9.73;2.23;;;3.80;99.90;;;;;;5054563;28;20053;-70
2022/02/01 12:28:19;;;;;;;14.93;2.30;;;3.90;99.90;;;;;;5054443;28;20501;-68
2022/02/01 12:30:47;;;;;;;11.23;3.13;;;3.90;99.90;;;;;;5054812;28;20136;-70
2022/02/01 12:33:20;;;;;;;11.07;2.70;;;3.90;99.90;;;;;;5054562;28;20479;-69
2022/02/01 12:35:50;;;;;;;10.30;2.27;;;3.80;99.90;;;;;;5054222;28;20103;-69
2022/02/01 12:38:20;;;;;;;8.13;2.00;;;3.80;99.90;;;;;;5054514;28;20568;-68
2022/02/01 12:40:52;;;;;;;9.93;2.60;;;3.60;99.90;;;;;;5054232;28;20532;-68
2022/02/01 12:43:23;;;;;;;9.30;2.40;;;3.50;99.90;;;;;;5054255;28;20088;-69
2022/02/01 12:46:01;;;;;;;11.87;2.53;;;3.50;99.90;;;;;;5054401;28;20064;-68
2022/02/01 12:48:32;;;;;;;8.27;2.50;;;3.40;99.90;;;;;;5054444;28;20131;-68
2022/02/01 12:51:01;;;;;;;7.90;2.30;;;3.40;99.90;;;;;;5054161;28;20087;-68
2022/02/01 12:53:28;;;;;;;5.43;1.83;;;3.40;99.90;;;;;;5053978;28;20132;-69
2022/02/01 12:55:55;;;;;;;10.80;2.43;;;3.20;99.90;;;;;;5053942;28;20049;-68
2022/02/01 12:58:22;;;;;;;8.47;2.43;;;3.20;99.90;;;;;;5054241;28;20128;-68
2022/02/01 13:00:51;;;;;;;18.77;2.80;;;3.10;99.90;;;;;;5054543;28;20484;-68
2022/02/01 13:03:18;;;;;;;9.40;2.80;;;3.00;99.90;;;;;;5053948;28;20489;-68
2022/02/01 13:05:47;;;;;;;13.47;2.20;;;3.20;99.90;;;;;;5053824;28;20045;-68
2022/02/01 13:16:48;;;;;;;11.10;2.50;;;3.10;99.90;;;;;;5054404;28;20544;-68
2022/02/01 13:22:10;;;;;;;11.30;3.13;;;2.90;99.90;;;;;;5054309;28;20048;-68
2022/02/01 13:24:37;;;;;;;7.27;2.47;;;3.00;99.90;;;;;;5053362;28;20110;-68
2022/02/01 13:27:04;;;;;;;10.80;2.83;;;2.90;99.90;;;;;;5054050;28;20511;-68
2022/02/01 13:29:31;;;;;;;11.97;3.20;;;2.80;99.90;;;;;;5054509;28;20478;-68
2022/02/01 13:31:58;;;;;;;9.60;2.60;;;2.70;99.90;;;;;;5054345;28;20048;-68
2022/02/01 13:34:28;;;;;;;16.67;3.33;;;2.80;99.90;;;;;;5054098;28;20135;-69
2022/02/01 13:36:57;;;;;;;13.13;2.90;;;2.80;99.90;;;;;;5054296;28;20048;-68
2022/02/01 13:39:28;;;;;;;9.77;2.43;;;2.80;99.90;;;;;;5054339;28;20114;-68
2022/02/01 13:41:57;;;;;;;8.07;2.07;;;2.80;99.90;;;;;;5054357;28;20060;-68
2022/02/01 13:44:24;;;;;;;10.50;2.10;;;2.70;99.90;;;;;;5054151;28;20128;-70
2022/02/01 13:47:00;;;;;;;8.80;2.00;;;2.80;99.90;;;;;;5054249;28;20052;-68
2022/02/01 13:49:28;;;;;;;9.57;2.43;;;2.80;99.90;;;;;;5054421;28;20076;-71
2022/02/01 13:51:55;;;;;;;6.73;1.70;;;2.80;99.90;;;;;;5054125;28;20045;-67
2022/02/01 13:54:23;;;;;;;14.37;2.97;;;2.80;99.90;;;;;;5053527;28;20263;-68
2022/02/01 13:56:53;;;;;;;14.53;2.30;;;2.70;99.90;;;;;;5053670;28;20092;-68
2022/02/01 13:59:24;;;;;;;9.03;2.10;;;2.70;99.90;;;;;;5053975;28;20051;-68
2022/02/01 14:02:01;;;;;;;5.00;1.83;;;2.70;99.90;;;;;;5053410;28;20394;-68
2022/02/01 14:04:33;;;;;;;9.63;1.73;;;2.80;99.90;;;;;;5053506;28;20564;-68
2022/02/01 14:07:07;;;;;;;8.27;2.03;;;2.80;99.90;;;;;;5053471;28;20061;-67
2022/02/01 14:09:48;;;;;;;7.30;2.07;;;2.70;99.90;;;;;;5053428;28;20052;-67